Time;durP1;ratioP1;P1;durP2;ratioP2;P2;SDS_P1;SDS_P2;PMS_P1;PMS_P2;Temp;Humidity;BMP_temperature;BMP_pressure;BME280_temperature;BME280_humidity;BME280_pressure;Samples;Min_cycle;Max_cycle;Signal;HPM_P1;HPM_P2
2023/10/22 00:02:10;;;;;;;5.45;1.25;;;12.50;99.90;;;;;;5055711;28;20083;-80
2023/10/22 00:04:38;;;;;;;3.10;1.17;;;12.40;99.90;;;;;;5056278;28;20288;-80
2023/10/22 00:07:04;;;;;;;3.78;1.20;;;12.40;99.90;;;;;;5056233;28;20060;-79
2023/10/22 00:09:30;;;;;;;5.00;1.02;;;12.50;99.90;;;;;;5055341;28;20417;-80
2023/10/22 00:11:55;;;;;;;3.15;1.23;;;12.50;99.90;;;;;;5055015;28;20326;-80
2023/10/22 00:14:21;;;;;;;4.50;1.20;;;12.50;99.90;;;;;;5054892;28;20045;-80
2023/10/22 00:16:46;;;;;;;3.72;1.00;;;12.50;99.90;;;;;;5055486;28;20037;-80
2023/10/22 00:19:12;;;;;;;5.57;1.40;;;12.50;99.90;;;;;;5055540;28;20409;-79
2023/10/22 00:21:37;;;;;;;3.05;1.20;;;12.60;99.90;;;;;;5056210;28;20037;-79
2023/10/22 00:24:03;;;;;;;5.78;1.42;;;12.50;99.90;;;;;;5055190;28;20045;-80
2023/10/22 00:26:29;;;;;;;6.93;1.52;;;12.60;99.90;;;;;;5055599;28;20045;-81
2023/10/22 00:28:55;;;;;;;7.32;1.30;;;12.60;99.90;;;;;;5056035;28;20048;-81
2023/10/22 00:31:20;;;;;;;4.63;1.00;;;12.50;99.90;;;;;;5055353;28;20408;-80
2023/10/22 00:33:46;;;;;;;4.45;1.50;;;12.50;99.90;;;;;;5055996;28;20041;-79
2023/10/22 00:36:11;;;;;;;2.85;0.85;;;12.50;99.90;;;;;;5055203;28;20412;-80
2023/10/22 00:38:37;;;;;;;6.80;1.00;;;12.50;99.90;;;;;;5055432;28;20378;-79
2023/10/22 00:41:02;;;;;;;6.22;1.10;;;12.50;99.90;;;;;;5054798;28;20029;-80
2023/10/22 00:43:28;;;;;;;5.22;0.90;;;12.60;99.90;;;;;;5055564;28;20463;-79
2023/10/22 00:45:54;;;;;;;5.47;1.00;;;12.60;99.90;;;;;;5056091;28;20045;-81
2023/10/22 00:48:21;;;;;;;5.97;0.90;;;12.60;99.90;;;;;;5055069;28;20076;-79
2023/10/22 00:50:47;;;;;;;4.38;0.90;;;12.60;99.90;;;;;;5054338;28;20060;-80
2023/10/22 00:53:15;;;;;;;4.28;0.88;;;12.60;99.90;;;;;;5055319;28;20080;-79
2023/10/22 00:55:44;;;;;;;6.18;1.10;;;12.60;99.90;;;;;;5038500;28;20044;-80
2023/10/22 00:58:12;;;;;;;5.15;1.10;;;12.60;99.90;;;;;;5054530;28;20045;-80
2023/10/22 01:00:39;;;;;;;4.72;1.20;;;12.60;99.90;;;;;;5054273;28;20032;-80
2023/10/22 01:03:05;;;;;;;2.58;1.08;;;12.70;99.90;;;;;;5037876;28;20045;-81
2023/10/22 01:05:31;;;;;;;5.18;1.10;;;12.70;99.90;;;;;;5053490;28;20040;-79
2023/10/22 01:07:57;;;;;;;4.20;0.82;;;12.70;99.90;;;;;;5053716;28;20109;-79
2023/10/22 01:10:23;;;;;;;4.88;1.00;;;12.80;99.90;;;;;;5035692;28;20044;-79
2023/10/22 01:12:48;;;;;;;3.88;0.93;;;12.80;99.90;;;;;;5052835;28;20409;-79
2023/10/22 01:15:14;;;;;;;4.60;1.30;;;12.90;99.90;;;;;;5053194;28;20049;-81
2023/10/22 01:17:39;;;;;;;2.53;0.82;;;12.90;99.90;;;;;;5052531;28;20041;-79
2023/10/22 01:20:06;;;;;;;2.42;0.70;;;12.90;99.90;;;;;;5052905;28;20040;-79
2023/10/22 01:22:34;;;;;;;4.57;1.13;;;12.90;99.90;;;;;;5053590;28;20162;-82
2023/10/22 01:25:00;;;;;;;3.88;1.00;;;12.80;99.90;;;;;;5053797;28;20111;-80
2023/10/22 01:27:25;;;;;;;7.78;1.00;;;12.70;99.90;;;;;;5053976;28;20553;-79
2023/10/22 01:29:51;;;;;;;1.95;0.57;;;12.70;99.90;;;;;;5053996;28;20060;-81
2023/10/22 01:32:16;;;;;;;3.78;0.90;;;12.70;99.90;;;;;;5052047;28;20468;-79
2023/10/22 01:34:42;;;;;;;4.20;0.80;;;12.70;99.90;;;;;;5053714;28;20153;-80
2023/10/22 01:37:07;;;;;;;3.47;0.77;;;12.60;99.90;;;;;;5036837;28;20081;-80
2023/10/22 01:39:33;;;;;;;2.15;0.60;;;12.60;99.90;;;;;;5052795;28;20059;-80
2023/10/22 01:41:58;;;;;;;3.47;0.88;;;12.50;99.90;;;;;;5053231;28;20591;-81
2023/10/22 01:44:24;;;;;;;3.63;0.85;;;12.50;99.90;;;;;;5052603;28;20117;-79
2023/10/22 01:46:50;;;;;;;5.05;1.13;;;12.50;99.90;;;;;;5054321;28;20049;-81
2023/10/22 01:49:15;;;;;;;5.80;0.85;;;12.50;99.90;;;;;;5053009;28;20041;-81
2023/10/22 01:51:41;;;;;;;3.85;0.80;;;12.40;99.90;;;;;;5053197;28;20179;-79
2023/10/22 01:54:06;;;;;;;2.92;0.90;;;12.30;99.90;;;;;;5035933;28;20121;-79
2023/10/22 01:56:32;;;;;;;5.82;1.20;;;12.30;99.90;;;;;;5052440;28;20165;-80
2023/10/22 01:58:58;;;;;;;4.28;0.98;;;12.20;99.90;;;;;;5052409;28;20052;-80
2023/10/22 02:01:25;;;;;;;3.15;1.00;;;12.20;99.90;;;;;;5034902;28;20037;-81
2023/10/22 02:03:51;;;;;;;3.70;1.00;;;12.10;99.90;;;;;;5034719;28;20037;-80
2023/10/22 02:06:17;;;;;;;5.53;1.35;;;12.10;99.90;;;;;;5052010;28;20041;-81
2023/10/22 02:08:45;;;;;;;4.97;1.50;;;12.00;99.90;;;;;;5051492;28;20045;-82
2023/10/22 02:11:10;;;;;;;2.88;1.00;;;12.00;99.90;;;;;;5050814;28;20519;-81
2023/10/22 02:13:36;;;;;;;3.28;1.00;;;11.90;99.90;;;;;;5051159;28;20037;-82
2023/10/22 02:16:02;;;;;;;3.67;1.10;;;11.90;99.90;;;;;;5051427;28;20052;-81
2023/10/22 02:18:27;;;;;;;3.38;1.08;;;11.90;99.90;;;;;;5051061;28;20029;-81
2023/10/22 02:20:55;;;;;;;5.97;1.00;;;11.80;99.90;;;;;;5051084;28;20041;-82
2023/10/22 02:23:21;;;;;;;3.80;1.20;;;11.80;99.90;;;;;;5050727;28;20041;-83
2023/10/22 02:25:49;;;;;;;2.90;1.08;;;11.80;99.90;;;;;;5051307;28;20037;-80
2023/10/22 02:28:15;;;;;;;3.92;1.20;;;11.70;99.90;;;;;;5050966;28;20057;-81
2023/10/22 02:30:41;;;;;;;6.00;1.55;;;11.70;99.90;;;;;;5034468;28;20618;-81
2023/10/22 02:33:07;;;;;;;3.38;1.15;;;11.70;99.90;;;;;;5050771;28;20104;-81
2023/10/22 02:35:38;;;;;;;3.67;1.15;;;11.70;99.90;;;;;;5053826;28;20569;-81
2023/10/22 02:38:05;;;;;;;6.10;1.90;;;11.70;99.90;;;;;;5054546;28;20108;-81
2023/10/22 02:40:36;;;;;;;3.83;1.35;;;11.60;99.90;;;;;;5053976;28;20307;-81
2023/10/22 02:43:03;;;;;;;6.05;1.58;;;11.60;99.90;;;;;;5054555;28;20412;-82
2023/10/22 02:45:29;;;;;;;3.95;1.50;;;11.60;99.90;;;;;;5054356;28;20127;-83
2023/10/22 02:47:55;;;;;;;5.43;1.70;;;11.60;99.90;;;;;;5037716;28;20396;-80
2023/10/22 02:50:21;;;;;;;4.55;1.60;;;11.60;99.90;;;;;;5053580;28;20049;-79
2023/10/22 02:52:47;;;;;;;7.20;1.63;;;11.60;99.90;;;;;;5037298;28;20045;-81
2023/10/22 02:55:12;;;;;;;5.80;2.25;;;11.60;99.90;;;;;;5053871;28;20037;-81
2023/10/22 02:57:38;;;;;;;3.92;2.25;;;11.60;99.90;;;;;;5053642;28;20457;-80
2023/10/22 03:00:05;;;;;;;5.05;2.00;;;11.60;99.90;;;;;;5052838;28;20111;-78
2023/10/22 03:02:30;;;;;;;4.28;2.40;;;11.60;99.90;;;;;;5053181;28;20087;-80
2023/10/22 03:04:56;;;;;;;3.35;2.08;;;11.60;99.90;;;;;;5053537;28;20069;-80
2023/10/22 03:07:23;;;;;;;4.03;2.08;;;11.60;99.90;;;;;;5053304;28;20036;-81
2023/10/22 03:09:49;;;;;;;6.10;2.10;;;11.60;99.90;;;;;;5052885;28;20079;-81
2023/10/22 03:12:15;;;;;;;6.00;2.00;;;11.50;99.90;;;;;;5053735;28;20072;-81
2023/10/22 03:14:40;;;;;;;3.63;2.05;;;11.50;99.90;;;;;;5052962;28;20098;-79
2023/10/22 03:17:06;;;;;;;5.20;1.75;;;11.50;99.90;;;;;;5052870;28;20041;-80
2023/10/22 03:19:31;;;;;;;6.15;1.90;;;11.50;99.90;;;;;;5052078;28;20044;-81
2023/10/22 03:21:57;;;;;;;4.38;1.98;;;11.50;99.90;;;;;;5052981;28;20434;-81
2023/10/22 03:24:23;;;;;;;4.43;1.90;;;11.50;99.90;;;;;;5052866;28;20041;-80
2023/10/22 03:26:48;;;;;;;3.95;2.03;;;11.50;99.90;;;;;;5052024;28;20033;-81
2023/10/22 03:29:14;;;;;;;4.88;2.10;;;11.50;99.90;;;;;;5035028;28;20111;-79
2023/10/22 03:31:40;;;;;;;5.38;1.92;;;11.50;99.90;;;;;;5052829;28;20507;-81
2023/10/22 03:34:05;;;;;;;5.97;1.70;;;11.50;99.90;;;;;;5035912;28;20534;-79
2023/10/22 03:36:31;;;;;;;3.80;1.65;;;11.50;99.90;;;;;;5052835;28;20041;-79
2023/10/22 03:38:56;;;;;;;4.57;1.80;;;11.60;99.90;;;;;;5052212;28;20463;-80
2023/10/22 03:41:22;;;;;;;5.00;2.08;;;11.60;99.90;;;;;;5051767;28;20033;-80
2023/10/22 03:43:47;;;;;;;4.30;1.50;;;11.60;99.90;;;;;;5052500;28;20048;-80
2023/10/22 03:46:13;;;;;;;2.35;1.35;;;11.60;99.90;;;;;;5052098;28;20048;-79
2023/10/22 03:48:38;;;;;;;5.70;1.77;;;11.60;99.90;;;;;;5052390;28;20119;-79
2023/10/22 03:51:04;;;;;;;5.10;1.55;;;11.60;99.90;;;;;;5052456;28;20040;-81
2023/10/22 03:53:29;;;;;;;2.70;1.63;;;11.60;99.90;;;;;;5052462;28;20047;-80
2023/10/22 03:55:55;;;;;;;4.57;1.80;;;11.60;99.90;;;;;;5052491;28;20385;-81
2023/10/22 03:58:21;;;;;;;4.10;1.60;;;11.60;99.90;;;;;;5052553;28;20041;-79
2023/10/22 04:00:46;;;;;;;2.63;1.58;;;11.70;99.90;;;;;;5051821;28;20120;-81
2023/10/22 04:03:12;;;;;;;5.10;1.67;;;11.70;99.90;;;;;;5051987;28;20493;-79
2023/10/22 04:05:37;;;;;;;4.78;1.88;;;11.70;99.90;;;;;;5051642;28;20127;-79
2023/10/22 04:08:03;;;;;;;3.45;1.40;;;11.60;99.90;;;;;;5034743;28;20048;-79
2023/10/22 04:10:29;;;;;;;4.43;1.73;;;11.60;99.90;;;;;;5051680;28;20040;-80
2023/10/22 04:12:55;;;;;;;5.05;1.77;;;11.70;99.90;;;;;;5051616;28;20134;-78
2023/10/22 04:15:20;;;;;;;4.55;1.80;;;11.70;99.90;;;;;;5051821;28;20435;-79
2023/10/22 04:17:47;;;;;;;3.08;1.65;;;11.70;99.90;;;;;;5051838;28;20041;-78
2023/10/22 04:20:12;;;;;;;4.53;1.25;;;11.70;99.90;;;;;;5051342;28;20083;-80
2023/10/22 04:22:40;;;;;;;2.47;1.60;;;11.70;99.90;;;;;;5051547;28;20452;-80
2023/10/22 04:25:06;;;;;;;3.92;1.70;;;11.70;99.90;;;;;;5031723;28;20049;-80
2023/10/22 04:27:31;;;;;;;3.22;1.40;;;11.60;99.90;;;;;;5032534;28;20040;-80
2023/10/22 04:29:57;;;;;;;2.47;1.40;;;11.70;99.90;;;;;;5051504;28;20115;-80
2023/10/22 04:32:23;;;;;;;3.65;1.63;;;11.60;99.90;;;;;;5051851;28;20117;-80
2023/10/22 04:34:48;;;;;;;2.05;1.50;;;11.60;99.90;;;;;;5051954;28;20045;-79
2023/10/22 04:37:15;;;;;;;2.85;1.40;;;11.60;99.90;;;;;;5051260;28;20069;-79
2023/10/22 04:39:41;;;;;;;2.08;1.40;;;11.60;99.90;;;;;;5051034;28;20067;-79
2023/10/22 04:42:06;;;;;;;2.65;1.30;;;11.70;99.90;;;;;;5051006;28;20048;-80
2023/10/22 04:44:32;;;;;;;2.05;1.38;;;11.70;99.90;;;;;;5050949;28;20496;-79
2023/10/22 04:46:58;;;;;;;2.08;1.17;;;11.70;99.90;;;;;;5050469;28;20049;-80
2023/10/22 04:49:25;;;;;;;3.22;1.58;;;11.70;99.90;;;;;;5050820;28;20041;-81
2023/10/22 04:51:51;;;;;;;2.38;1.63;;;11.70;99.90;;;;;;5050824;28;20049;-79
2023/10/22 04:54:18;;;;;;;2.00;1.55;;;11.70;99.90;;;;;;5034410;28;20047;-80
2023/10/22 04:56:43;;;;;;;3.50;1.40;;;11.70;99.90;;;;;;5050825;28;20492;-79
2023/10/22 04:59:09;;;;;;;1.70;1.35;;;11.70;99.90;;;;;;5049828;28;20041;-78
2023/10/22 05:01:34;;;;;;;3.72;1.60;;;11.70;99.90;;;;;;5050726;28;20492;-81
2023/10/22 05:04:00;;;;;;;1.70;1.30;;;11.70;99.90;;;;;;5052135;28;20041;-81
2023/10/22 05:06:25;;;;;;;1.70;1.30;;;11.70;99.90;;;;;;5051063;28;20457;-81
2023/10/22 05:08:51;;;;;;;2.85;1.52;;;11.70;99.90;;;;;;5051931;28;20123;-81
2023/10/22 05:11:17;;;;;;;2.10;1.58;;;11.80;99.90;;;;;;5050444;28;20099;-79
2023/10/22 05:13:46;;;;;;;2.65;1.80;;;11.70;99.90;;;;;;5051864;28;20523;-80
2023/10/22 05:16:12;;;;;;;3.05;1.80;;;11.80;99.90;;;;;;5052301;28;20071;-80
2023/10/22 05:18:38;;;;;;;2.35;1.85;;;11.80;99.90;;;;;;5050591;28;20048;-80
2023/10/22 05:21:05;;;;;;;2.90;2.20;;;11.70;99.90;;;;;;5051814;28;20040;-80
2023/10/22 05:23:32;;;;;;;4.32;2.50;;;11.80;99.90;;;;;;5050559;28;20040;-80
2023/10/22 05:26:06;;;;;;;6.22;3.50;;;11.80;99.90;;;;;;5049127;28;20068;-81
2023/10/22 05:28:31;;;;;;;5.63;3.53;;;11.80;99.90;;;;;;5049669;28;20119;-79
2023/10/22 05:30:57;;;;;;;4.07;3.38;;;11.90;99.90;;;;;;5050215;28;20187;-79
2023/10/22 05:33:22;;;;;;;4.43;3.55;;;11.90;99.90;;;;;;5050507;28;20045;-81
2023/10/22 05:35:48;;;;;;;5.38;3.65;;;11.90;99.90;;;;;;5050626;28;20413;-80
2023/10/22 05:38:13;;;;;;;5.68;4.00;;;11.90;99.90;;;;;;5050072;28;20504;-80
2023/10/22 05:40:39;;;;;;;6.28;3.50;;;11.90;99.90;;;;;;5049934;28;20045;-80
2023/10/22 05:43:04;;;;;;;5.10;3.60;;;12.00;99.90;;;;;;5050323;28;20037;-81
2023/10/22 05:45:30;;;;;;;6.03;4.05;;;12.00;99.90;;;;;;5050170;28;20090;-81
2023/10/22 05:47:55;;;;;;;5.07;3.70;;;12.00;99.90;;;;;;5033356;28;20045;-80
2023/10/22 05:50:21;;;;;;;5.05;3.42;;;12.00;99.90;;;;;;5049274;28;20132;-80
2023/10/22 05:52:50;;;;;;;3.90;3.50;;;12.00;99.90;;;;;;5048705;28;20551;-80
2023/10/22 05:55:16;;;;;;;4.85;3.40;;;12.00;99.90;;;;;;5050166;28;20036;-79
2023/10/22 05:57:43;;;;;;;4.10;3.53;;;12.00;99.90;;;;;;5050444;28;20045;-80
2023/10/22 06:00:09;;;;;;;3.60;3.05;;;12.00;99.90;;;;;;5050069;28;20033;-80
2023/10/22 06:02:35;;;;;;;3.47;2.88;;;12.00;99.90;;;;;;5050578;28;20041;-80
2023/10/22 06:05:01;;;;;;;3.58;2.92;;;12.00;99.90;;;;;;5050957;28;20041;-80
2023/10/22 06:07:26;;;;;;;3.10;2.47;;;12.10;99.90;;;;;;5050942;28;20091;-80
2023/10/22 06:09:52;;;;;;;2.03;1.73;;;12.00;99.90;;;;;;5051182;28;20045;-79
2023/10/22 06:12:17;;;;;;;2.85;1.70;;;12.10;99.90;;;;;;5053954;28;20049;-79
2023/10/22 06:14:44;;;;;;;5.50;1.30;;;12.10;99.90;;;;;;5054209;28;20037;-80
2023/10/22 06:17:09;;;;;;;1.80;1.00;;;12.10;99.90;;;;;;5054156;28;20037;-80
2023/10/22 06:19:35;;;;;;;4.07;1.13;;;12.00;99.90;;;;;;5054302;28;20037;-81
2023/10/22 06:22:00;;;;;;;4.53;1.30;;;12.00;99.90;;;;;;5054856;28;20435;-80
2023/10/22 06:24:26;;;;;;;3.05;1.13;;;11.90;99.90;;;;;;5054610;28;20045;-81
2023/10/22 06:26:51;;;;;;;3.00;0.82;;;11.90;99.90;;;;;;5054084;28;20029;-79
2023/10/22 06:29:17;;;;;;;2.58;1.35;;;11.80;99.90;;;;;;5053843;28;20546;-80
2023/10/22 06:31:42;;;;;;;3.53;1.50;;;11.80;99.90;;;;;;5054170;28;20060;-79
2023/10/22 06:34:08;;;;;;;4.63;1.50;;;11.80;99.90;;;;;;5054145;28;20059;-79
2023/10/22 06:36:33;;;;;;;3.45;1.17;;;11.80;99.90;;;;;;5053952;28;20569;-80
2023/10/22 06:38:59;;;;;;;3.75;1.20;;;11.70;99.90;;;;;;5053993;28;20033;-80
2023/10/22 06:41:25;;;;;;;4.05;1.17;;;11.70;99.90;;;;;;5054294;28;20065;-80
2023/10/22 06:43:51;;;;;;;3.42;1.10;;;11.60;99.90;;;;;;5054073;28;20519;-79
2023/10/22 06:46:17;;;;;;;4.55;1.35;;;11.60;99.90;;;;;;5053771;28;20052;-80
2023/10/22 06:48:43;;;;;;;4.28;1.10;;;11.50;99.90;;;;;;5053997;28;20048;-80
2023/10/22 06:51:12;;;;;;;4.85;1.30;;;11.50;99.90;;;;;;5053653;28;20409;-80
2023/10/22 06:53:38;;;;;;;2.72;1.00;;;11.50;99.90;;;;;;5053338;28;20037;-80
2023/10/22 06:56:05;;;;;;;3.47;1.20;;;11.40;99.90;;;;;;5054040;28;20041;-79
2023/10/22 06:58:31;;;;;;;6.45;1.27;;;11.50;99.90;;;;;;5053777;28;20500;-79
2023/10/22 07:01:09;;;;;;;3.15;1.45;;;11.40;99.90;;;;;;5037106;28;20040;-80
2023/10/22 07:03:35;;;;;;;5.20;1.48;;;11.40;99.90;;;;;;5053955;28;20412;-81
2023/10/22 07:06:01;;;;;;;3.72;1.30;;;11.40;99.90;;;;;;5037117;28;20044;-81
2023/10/22 07:08:28;;;;;;;6.13;1.75;;;11.40;99.90;;;;;;5053637;28;20507;-81
2023/10/22 07:10:53;;;;;;;5.65;1.33;;;11.40;99.90;;;;;;5037034;28;20067;-82
2023/10/22 07:13:20;;;;;;;5.97;1.60;;;11.40;99.90;;;;;;5053932;28;20507;-80
2023/10/22 07:15:46;;;;;;;6.68;1.75;;;11.40;99.90;;;;;;5053858;28;20040;-82
2023/10/22 07:18:13;;;;;;;6.18;1.38;;;11.40;99.90;;;;;;5054289;28;20051;-80
2023/10/22 07:20:39;;;;;;;9.88;1.88;;;11.40;99.90;;;;;;5052810;28;20391;-80
2023/10/22 07:23:04;;;;;;;6.78;1.42;;;11.40;99.90;;;;;;5052850;28;20128;-80
2023/10/22 07:25:31;;;;;;;7.45;1.85;;;11.40;99.90;;;;;;5053070;28;20090;-79
2023/10/22 07:27:56;;;;;;;7.10;2.00;;;11.40;99.90;;;;;;5052409;28;20075;-79
2023/10/22 07:30:22;;;;;;;3.65;1.48;;;11.40;99.90;;;;;;5052715;28;20452;-81
2023/10/22 07:32:50;;;;;;;4.50;1.90;;;11.50;99.90;;;;;;5052279;28;20053;-78
2023/10/22 07:35:16;;;;;;;6.63;1.65;;;11.40;99.90;;;;;;5052471;28;20102;-80
2023/10/22 07:37:44;;;;;;;7.50;1.92;;;11.50;99.90;;;;;;5036581;28;20128;-79
2023/10/22 07:40:10;;;;;;;7.85;2.25;;;11.50;99.90;;;;;;5052198;28;20044;-79
2023/10/22 07:42:36;;;;;;;6.65;2.25;;;11.50;99.90;;;;;;5052937;28;20075;-79
2023/10/22 07:45:01;;;;;;;5.68;2.15;;;11.50;99.90;;;;;;5052631;28;20128;-80
2023/10/22 07:47:27;;;;;;;9.15;2.08;;;11.50;99.90;;;;;;5052399;28;20049;-79
2023/10/22 07:49:52;;;;;;;6.35;2.55;;;11.50;99.90;;;;;;5052638;28;20093;-81
2023/10/22 07:52:18;;;;;;;10.48;3.33;;;11.50;99.90;;;;;;5052366;28;20041;-81
2023/10/22 07:54:47;;;;;;;6.65;2.67;;;11.50;99.90;;;;;;5053389;28;20041;-81
2023/10/22 07:57:13;;;;;;;8.35;2.53;;;11.60;99.90;;;;;;5052910;28;20060;-80
2023/10/22 07:59:38;;;;;;;5.45;2.72;;;11.60;99.90;;;;;;5053943;28;20055;-79
2023/10/22 08:02:04;;;;;;;7.30;2.70;;;11.50;99.90;;;;;;5035973;28;20492;-81
2023/10/22 08:04:29;;;;;;;6.93;2.65;;;11.60;99.90;;;;;;5052654;28;20566;-80
2023/10/22 08:06:55;;;;;;;10.52;2.88;;;11.60;99.90;;;;;;5052344;28;20087;-80
2023/10/22 08:09:22;;;;;;;11.30;3.00;;;11.60;99.90;;;;;;5052596;28;20040;-80
2023/10/22 08:11:47;;;;;;;5.25;2.78;;;11.60;99.90;;;;;;5035922;28;20330;-81
2023/10/22 08:14:13;;;;;;;4.20;2.55;;;11.60;99.90;;;;;;5052603;28;20071;-81
2023/10/22 08:16:39;;;;;;;9.15;2.90;;;11.60;99.90;;;;;;5052802;28;20039;-81
2023/10/22 08:19:04;;;;;;;5.47;2.40;;;11.70;99.90;;;;;;5050553;28;20048;-81
2023/10/22 08:21:30;;;;;;;5.82;2.45;;;11.70;99.90;;;;;;5051942;28;20115;-81
2023/10/22 08:23:56;;;;;;;4.85;2.50;;;11.80;99.90;;;;;;5052101;28;20048;-81
2023/10/22 08:26:22;;;;;;;7.55;2.63;;;11.80;99.90;;;;;;5052520;28;20459;-79
2023/10/22 08:28:47;;;;;;;5.43;2.20;;;11.80;99.90;;;;;;5050422;28;20099;-80
2023/10/22 08:31:13;;;;;;;4.70;2.65;;;11.90;99.90;;;;;;5051969;28;20051;-81
2023/10/22 08:33:38;;;;;;;5.28;2.13;;;11.90;99.90;;;;;;5051162;28;20052;-81
2023/10/22 08:36:07;;;;;;;7.07;2.50;;;11.90;99.90;;;;;;5035304;28;20036;-81
2023/10/22 08:38:33;;;;;;;5.88;2.22;;;12.00;99.90;;;;;;5051357;28;20048;-80
2023/10/22 08:41:00;;;;;;;7.70;2.70;;;12.10;99.90;;;;;;5050902;28;20033;-80
2023/10/22 08:43:32;;;;;;;7.80;2.90;;;12.10;99.90;;;;;;5052731;28;20080;-80
2023/10/22 08:45:58;;;;;;;4.35;2.10;;;12.10;99.90;;;;;;5051670;28;20033;-80
2023/10/22 08:48:24;;;;;;;7.95;2.50;;;12.20;99.90;;;;;;5051824;28;20044;-81
2023/10/22 08:50:51;;;;;;;7.32;2.45;;;12.20;99.90;;;;;;5051515;28;20052;-80
2023/10/22 08:53:17;;;;;;;9.02;2.25;;;12.20;99.90;;;;;;5050760;28;20087;-80
2023/10/22 08:55:47;;;;;;;6.38;1.92;;;12.30;99.90;;;;;;5052265;28;20037;-80
2023/10/22 08:58:18;;;;;;;5.35;1.85;;;12.30;99.90;;;;;;5052812;28;20048;-80
2023/10/22 09:00:46;;;;;;;5.28;1.73;;;12.30;99.90;;;;;;5051869;28;20407;-80
2023/10/22 09:03:14;;;;;;;5.50;1.90;;;12.40;99.90;;;;;;5051885;28;20048;-81
2023/10/22 09:05:39;;;;;;;6.03;1.60;;;12.40;99.90;;;;;;5052392;28;20044;-80
2023/10/22 09:08:05;;;;;;;5.05;1.65;;;12.50;99.90;;;;;;5050935;28;20550;-80
2023/10/22 09:10:32;;;;;;;2.85;1.20;;;12.50;99.90;;;;;;5052959;28;20079;-81
2023/10/22 09:13:21;;;;;;;5.78;1.20;;;12.60;99.90;;;;;;5051934;28;20123;-82
2023/10/22 09:15:48;;;;;;;5.07;1.58;;;12.60;99.90;;;;;;5052371;28;20048;-81
2023/10/22 09:18:15;;;;;;;9.25;1.45;;;12.60;99.90;;;;;;5035389;28;20041;-81
2023/10/22 09:20:42;;;;;;;2.67;1.30;;;12.60;99.90;;;;;;5051743;28;20048;-81
2023/10/22 09:23:15;;;;;;;8.15;1.23;;;12.60;99.90;;;;;;5051917;28;20198;-81
2023/10/22 09:25:52;;;;;;;5.05;1.52;;;12.70;99.90;;;;;;5052788;28;20094;-81
2023/10/22 09:28:24;;;;;;;5.80;1.40;;;12.70;99.90;;;;;;5035910;28;20511;-80
2023/10/22 09:31:05;;;;;;;4.40;1.10;;;12.70;99.90;;;;;;5051739;28;20085;-81
2023/10/22 09:33:33;;;;;;;3.00;1.48;;;12.80;99.90;;;;;;5051893;28;20064;-81
2023/10/22 09:36:06;;;;;;;4.07;1.10;;;12.90;99.90;;;;;;5051876;28;20036;-81
2023/10/22 09:38:49;;;;;;;2.40;1.00;;;13.10;99.90;;;;;;5035434;28;20039;-81
2023/10/22 09:41:26;;;;;;;3.58;1.17;;;13.20;99.90;;;;;;5051952;28;20048;-80
2023/10/22 09:43:57;;;;;;;5.47;0.90;;;13.30;99.90;;;;;;5051744;28;20096;-80
2023/10/22 09:46:33;;;;;;;3.35;0.70;;;13.30;99.90;;;;;;5052048;28;20068;-80
2023/10/22 09:49:03;;;;;;;5.30;0.93;;;13.20;99.90;;;;;;5035728;28;20041;-81
2023/10/22 09:51:34;;;;;;;3.58;0.82;;;13.30;99.90;;;;;;5051885;28;20045;-80
2023/10/22 09:54:05;;;;;;;5.68;1.02;;;13.20;99.90;;;;;;5051873;28;20090;-81
2023/10/22 09:56:32;;;;;;;2.15;0.70;;;13.30;99.90;;;;;;5035495;28;20033;-81
2023/10/22 09:59:07;;;;;;;1.58;0.60;;;13.30;99.90;;;;;;5051983;28;20080;-80
2023/10/22 10:01:37;;;;;;;5.80;0.77;;;13.30;99.90;;;;;;5035884;28;20037;-81
2023/10/22 10:04:04;;;;;;;3.17;0.85;;;13.30;99.90;;;;;;5051814;28;20289;-80
2023/10/22 10:06:31;;;;;;;2.38;0.55;;;13.20;99.90;;;;;;5052126;28;20512;-81
2023/10/22 10:08:57;;;;;;;3.30;0.88;;;13.20;99.90;;;;;;5052059;28;20064;-81
2023/10/22 10:11:24;;;;;;;3.45;0.80;;;13.20;99.90;;;;;;5051884;28;20053;-81
2023/10/22 10:13:50;;;;;;;1.95;0.77;;;13.30;99.90;;;;;;5052381;28;20523;-81
2023/10/22 10:16:16;;;;;;;3.10;0.98;;;13.40;99.90;;;;;;5052127;28;20041;-81
2023/10/22 10:19:04;;;;;;;2.25;0.75;;;13.40;99.90;;;;;;5051621;28;20091;-81
2023/10/22 10:21:53;;;;;;;3.33;0.90;;;13.40;99.90;;;;;;5051945;28;20511;-80
2023/10/22 10:24:26;;;;;;;2.88;0.80;;;13.40;99.90;;;;;;5052190;28;20045;-80
2023/10/22 10:26:58;;;;;;;4.65;0.82;;;13.50;99.90;;;;;;5035323;28;20127;-82
2023/10/22 10:29:32;;;;;;;2.72;0.77;;;13.40;99.90;;;;;;5051806;28;20279;-80
2023/10/22 10:32:12;;;;;;;4.30;0.80;;;13.40;99.90;;;;;;5052086;28;20036;-82
2023/10/22 10:34:40;;;;;;;4.80;0.70;;;13.40;99.90;;;;;;5034798;28;20098;-81
2023/10/22 10:37:19;;;;;;;0.73;0.43;;;13.60;99.90;;;;;;5034619;28;20037;-81
2023/10/22 10:39:47;;;;;;;2.45;0.60;;;13.50;99.90;;;;;;5051656;28;20374;-81
2023/10/22 10:42:13;;;;;;;1.38;0.50;;;13.60;99.90;;;;;;5051544;28;20036;-80
2023/10/22 10:44:57;;;;;;;3.30;0.75;;;13.80;99.90;;;;;;5050203;28;20039;-80
2023/10/22 10:47:27;;;;;;;2.67;0.50;;;14.00;99.90;;;;;;5052348;28;20108;-82
2023/10/22 10:50:11;;;;;;;1.25;0.50;;;14.30;99.90;;;;;;5052037;28;20047;-81
2023/10/22 10:52:37;;;;;;;;;;;14.40;99.90;;;;;;5051824;28;20045;-81
2023/10/22 10:55:14;;;;;;;2.70;0.70;;;14.30;99.90;;;;;;5051915;28;20007;-80
2023/10/22 10:57:42;;;;;;;3.60;0.57;;;14.20;99.90;;;;;;5039379;28;20041;-81
2023/10/22 11:00:09;;;;;;;1.95;1.02;;;14.10;99.90;;;;;;5055461;28;20512;-81
2023/10/22 11:02:45;;;;;;;1.67;0.50;;;14.00;99.90;;;;;;5055624;28;20041;-81
2023/10/22 11:05:12;;;;;;;1.15;0.43;;;13.90;99.90;;;;;;5055450;28;20044;-81
2023/10/22 11:07:38;;;;;;;3.95;0.50;;;13.80;99.90;;;;;;5054841;28;20048;-81
2023/10/22 11:10:16;;;;;;;2.97;0.60;;;13.80;99.90;;;;;;5055163;28;20404;-81
2023/10/22 11:12:45;;;;;;;1.05;0.45;;;13.70;99.90;;;;;;5055151;28;20045;-81
2023/10/22 11:15:12;;;;;;;1.52;0.47;;;13.80;99.90;;;;;;5053837;28;20033;-81
2023/10/22 11:17:38;;;;;;;2.10;0.50;;;13.80;99.90;;;;;;5054469;28;20319;-80
2023/10/22 11:20:05;;;;;;;1.00;0.50;;;13.80;99.90;;;;;;5053851;28;20037;-79
2023/10/22 11:22:32;;;;;;;4.80;0.60;;;13.80;99.90;;;;;;5054606;28;20061;-81
2023/10/22 11:25:00;;;;;;;3.65;0.70;;;13.90;99.90;;;;;;5054349;28;20068;-80
2023/10/22 11:27:26;;;;;;;2.65;0.60;;;13.80;99.90;;;;;;5037634;28;20052;-81
2023/10/22 11:29:52;;;;;;;1.85;0.30;;;13.80;99.90;;;;;;5054225;28;20073;-81
2023/10/22 11:32:24;;;;;;;1.83;0.60;;;13.90;99.90;;;;;;5053630;28;20539;-80
2023/10/22 11:34:56;;;;;;;0.80;0.40;;;13.90;99.90;;;;;;5053163;28;20041;-81
2023/10/22 11:37:36;;;;;;;2.08;0.80;;;13.80;99.90;;;;;;5052896;28;20128;-80
2023/10/22 11:40:29;;;;;;;1.55;0.50;;;13.80;99.90;;;;;;5054589;28;20041;-82
2023/10/22 11:43:04;;;;;;;1.85;0.50;;;13.70;99.90;;;;;;5055096;28;20052;-80
2023/10/22 11:45:32;;;;;;;1.13;0.32;;;13.60;99.90;;;;;;5054297;28;20053;-80
2023/10/22 11:48:14;;;;;;;0.85;0.40;;;13.50;99.90;;;;;;5054324;28;20052;-81
2023/10/22 11:50:45;;;;;;;1.13;0.40;;;13.40;99.90;;;;;;5037079;28;20052;-81
2023/10/22 11:53:11;;;;;;;2.72;0.40;;;13.40;99.90;;;;;;5037396;28;20447;-80
2023/10/22 11:55:37;;;;;;;2.75;0.90;;;13.30;99.90;;;;;;5053591;28;20033;-80
2023/10/22 11:58:03;;;;;;;0.73;0.40;;;13.30;99.90;;;;;;5053384;28;20041;-81
2023/10/22 12:00:29;;;;;;;2.53;0.52;;;13.30;99.90;;;;;;5053775;28;20052;-80
2023/10/22 12:02:54;;;;;;;1.52;0.40;;;13.30;99.90;;;;;;5053363;28;20037;-81
2023/10/22 12:05:20;;;;;;;1.63;0.60;;;13.30;99.90;;;;;;5053764;28;20030;-81
2023/10/22 12:07:46;;;;;;;1.52;0.57;;;13.30;99.90;;;;;;5052712;28;20091;-80
2023/10/22 12:10:12;;;;;;;2.17;0.95;;;13.30;99.90;;;;;;5053282;28;20037;-80
2023/10/22 12:12:38;;;;;;;1.38;0.73;;;13.30;99.90;;;;;;5053432;28;20037;-80
2023/10/22 12:15:04;;;;;;;1.10;0.68;;;13.30;99.90;;;;;;5053859;28;20394;-80
2023/10/22 12:17:30;;;;;;;2.13;0.43;;;13.30;99.90;;;;;;5053384;28;20095;-80
2023/10/22 12:19:56;;;;;;;3.75;0.63;;;13.20;99.90;;;;;;5053250;28;20508;-80
2023/10/22 12:22:22;;;;;;;1.50;0.43;;;13.30;99.90;;;;;;5053625;28;20040;-80
2023/10/22 12:24:50;;;;;;;1.55;0.60;;;13.40;99.90;;;;;;5053603;28;20099;-80
2023/10/22 12:27:16;;;;;;;2.42;0.80;;;13.60;99.90;;;;;;5053812;28;20037;-80
2023/10/22 12:29:42;;;;;;;1.52;0.50;;;13.80;99.90;;;;;;5053116;28;20087;-80
2023/10/22 12:32:07;;;;;;;1.00;0.55;;;14.00;99.90;;;;;;5052781;28;20039;-79
2023/10/22 12:34:33;;;;;;;1.80;0.47;;;14.10;99.90;;;;;;5052947;28;20120;-80
2023/10/22 12:36:59;;;;;;;3.50;0.60;;;14.10;99.90;;;;;;5053160;28;20036;-79
2023/10/22 12:39:24;;;;;;;1.85;0.40;;;14.20;99.90;;;;;;5052816;28;20381;-80
2023/10/22 12:41:50;;;;;;;1.27;0.45;;;14.30;99.90;;;;;;5052892;28;20079;-80
2023/10/22 12:44:15;;;;;;;2.13;0.35;;;14.50;99.90;;;;;;5052474;28;20056;-79
2023/10/22 12:46:41;;;;;;;0.90;0.38;;;14.70;99.90;;;;;;5052355;28;20049;-80
2023/10/22 12:49:06;;;;;;;2.10;0.65;;;14.70;99.90;;;;;;5052402;28;20045;-81